Time;durP1;ratioP1;P1;durP2;ratioP2;P2;SDS_P1;SDS_P2;PMS_P1;PMS_P2;Temp;Humidity;BMP_temperature;BMP_pressure;BME280_temperature;BME280_humidity;BME280_pressure;Samples;Min_cycle;Max_cycle;Signal;HPM_P1;HPM_P2
2023/09/23 00:00:38;;;;;;;5.47;3.95;;;;;;;;;;5038084;28;20021;-70
2023/09/23 00:03:04;;;;;;;4.80;3.35;;;;;;;;;;5055591;28;20013;-70
2023/09/23 00:05:32;;;;;;;5.05;3.47;;;;;;;;;;5055510;28;20537;-69
2023/09/23 00:07:58;;;;;;;6.60;4.10;;;;;;;;;;5055024;28;20028;-69
2023/09/23 00:10:24;;;;;;;7.05;4.05;;;;;;;;;;5055251;28;20111;-69
2023/09/23 00:12:49;;;;;;;6.40;4.88;;;;;;;;;;5037630;28;20051;-69
2023/09/23 00:15:16;;;;;;;6.50;4.28;;;;;;;;;;5075045;28;20553;-69
2023/09/23 00:17:45;;;;;;;8.88;4.47;;;;;;;;;;5038254;28;20029;-70
2023/09/23 00:20:16;;;;;;;7.30;5.07;;;;;;;;;;5072159;28;20021;-70
2023/09/23 00:22:47;;;;;;;7.95;5.18;;;;;;;;;;5074827;28;20024;-70
2023/09/23 00:25:14;;;;;;;7.32;5.57;;;;;;;;;;5062427;28;20107;-70
2023/09/23 00:27:41;;;;;;;10.07;4.82;;;;;;;;;;5055272;28;20108;-70
2023/09/23 00:30:07;;;;;;;7.10;4.55;;;;;;;;;;5039533;28;20478;-69
2023/09/23 00:32:34;;;;;;;9.82;4.95;;;;;;;;;;5019757;28;20029;-69
2023/09/23 00:34:59;;;;;;;8.30;4.35;;;;;;;;;;5017353;28;20060;-69
2023/09/23 00:37:25;;;;;;;7.28;4.40;;;;;;;;;;5012018;28;20025;-70
2023/09/23 00:39:50;;;;;;;8.32;3.97;;;;;;;;;;5017096;28;20399;-69
2023/09/23 00:42:20;;;;;;;10.93;5.60;;;;;;;;;;5022223;28;20056;-69
2023/09/23 00:44:46;;;;;;;9.00;5.18;;;;;;;;;;5053050;28;20037;-69
2023/09/23 00:47:15;;;;;;;7.65;4.38;;;;;;;;;;5046690;28;20029;-70
2023/09/23 00:49:45;;;;;;;12.23;5.07;;;;;;;;;;5017820;28;20029;-69
2023/09/23 00:52:14;;;;;;;11.20;5.35;;;;;;;;;;5042681;28;20021;-69
2023/09/23 00:54:40;;;;;;;5.63;4.43;;;;;;;;;;5033284;28;20038;-69
2023/09/23 00:57:06;;;;;;;7.50;3.65;;;;;;;;;;5039341;28;20406;-69
2023/09/23 00:59:35;;;;;;;5.80;4.40;;;;;;;;;;5068971;28;20020;-70
2023/09/23 01:02:02;;;;;;;6.93;4.75;;;;;;;;;;5040875;28;20021;-69
2023/09/23 01:04:27;;;;;;;8.75;4.65;;;;;;;;;;5032659;28;20029;-69
2023/09/23 01:06:53;;;;;;;6.60;3.88;;;;;;;;;;5017058;28;20037;-70
2023/09/23 01:09:21;;;;;;;9.43;4.28;;;;;;;;;;5024348;28;20021;-69
2023/09/23 01:11:47;;;;;;;6.00;4.03;;;;;;;;;;5034395;28;20394;-70
2023/09/23 01:14:12;;;;;;;9.07;4.10;;;;;;;;;;5033995;28;20025;-69
2023/09/23 01:16:37;;;;;;;7.57;4.22;;;;;;;;;;5035233;28;20052;-70
2023/09/23 01:19:03;;;;;;;5.75;3.97;;;;;;;;;;5054031;28;20029;-69
2023/09/23 01:21:28;;;;;;;7.78;4.07;;;;;;;;;;5053763;28;20100;-70
2023/09/23 01:23:54;;;;;;;6.60;4.47;;;;;;;;;;5035578;28;20397;-70
2023/09/23 01:26:19;;;;;;;8.35;4.50;;;;;;;;;;5053740;28;20044;-70
2023/09/23 01:28:47;;;;;;;10.60;5.00;;;;;;;;;;5050978;28;20469;-69
2023/09/23 01:31:13;;;;;;;7.22;5.05;;;;;;;;;;5033841;28;20029;-70
2023/09/23 01:33:38;;;;;;;10.82;5.30;;;;;;;;;;5016092;28;20017;-69
2023/09/23 01:36:04;;;;;;;7.53;4.82;;;;;;;;;;5015913;28;20067;-70
2023/09/23 01:38:30;;;;;;;12.38;5.55;;;;;;;;;;5015894;28;20017;-70
2023/09/23 01:40:55;;;;;;;9.73;6.38;;;;;;;;;;5022825;28;20025;-70
2023/09/23 01:43:21;;;;;;;9.32;6.03;;;;;;;;;;5052555;28;20025;-70
2023/09/23 01:45:46;;;;;;;9.40;5.32;;;;;;;;;;5053506;28;20399;-70
2023/09/23 01:48:11;;;;;;;9.02;6.03;;;;;;;;;;5042392;28;20033;-71
2023/09/23 01:50:37;;;;;;;8.82;5.60;;;;;;;;;;5033748;28;20036;-71
2023/09/23 01:53:02;;;;;;;11.90;5.85;;;;;;;;;;5045183;28;20399;-72
2023/09/23 01:55:28;;;;;;;12.85;7.03;;;;;;;;;;5051760;28;20056;-73
2023/09/23 01:57:54;;;;;;;11.10;6.43;;;;;;;;;;5051378;28;20593;-71
2023/09/23 02:00:24;;;;;;;10.52;6.28;;;;;;;;;;5053548;28;20021;-72
2023/09/23 02:02:49;;;;;;;13.20;7.10;;;;;;;;;;5037138;28;20021;-71
2023/09/23 02:05:18;;;;;;;10.85;7.28;;;;;;;;;;5035875;28;20024;-72
2023/09/23 02:07:45;;;;;;;10.45;7.38;;;;;;;;;;5037134;28;20530;-71
2023/09/23 02:10:11;;;;;;;15.27;7.07;;;;;;;;;;5038239;28;20039;-72
2023/09/23 02:12:36;;;;;;;11.27;6.93;;;;;;;;;;5031686;28;20024;-71
2023/09/23 02:15:02;;;;;;;14.35;7.28;;;;;;;;;;5018924;28;20521;-71
2023/09/23 02:17:27;;;;;;;13.90;7.88;;;;;;;;;;5052380;28;20075;-71
2023/09/23 02:19:53;;;;;;;14.40;7.78;;;;;;;;;;5035455;28;20075;-72
2023/09/23 02:22:19;;;;;;;13.27;7.20;;;;;;;;;;5052915;28;20465;-71
2023/09/23 02:24:44;;;;;;;11.93;7.55;;;;;;;;;;5038105;28;20032;-71
2023/09/23 02:27:10;;;;;;;14.38;8.23;;;;;;;;;;5015388;28;20025;-72
2023/09/23 02:29:35;;;;;;;15.00;8.82;;;;;;;;;;5040808;28;20024;-71
2023/09/23 02:32:01;;;;;;;12.45;8.27;;;;;;;;;;5053085;28;20028;-71
2023/09/23 02:34:28;;;;;;;12.60;7.65;;;;;;;;;;5034626;28;20410;-71
2023/09/23 02:36:53;;;;;;;15.20;8.70;;;;;;;;;;5050599;28;20501;-71
2023/09/23 02:39:21;;;;;;;17.35;9.68;;;;;;;;;;5052658;28;20033;-72
2023/09/23 02:41:50;;;;;;;16.70;8.00;;;;;;;;;;5050540;28;20391;-72
2023/09/23 02:44:20;;;;;;;17.38;10.07;;;;;;;;;;5034918;28;20037;-72
2023/09/23 02:46:49;;;;;;;16.08;8.93;;;;;;;;;;5033377;28;20048;-72
2023/09/23 02:49:17;;;;;;;17.27;9.27;;;;;;;;;;5015015;28;20021;-72
2023/09/23 02:51:44;;;;;;;15.43;8.82;;;;;;;;;;5014804;28;20021;-73
2023/09/23 02:54:11;;;;;;;14.82;9.00;;;;;;;;;;5039321;28;20108;-72
2023/09/23 02:56:36;;;;;;;17.23;9.50;;;;;;;;;;5041363;28;20487;-73
2023/09/23 02:59:11;;;;;;;15.23;7.85;;;;;;;;;;4998445;28;20120;-72
2023/09/23 03:01:39;;;;;;;10.25;6.18;;;;;;;;;;5023492;28;20053;-72
2023/09/23 03:04:16;;;;;;;9.10;5.47;;;;;;;;;;5015544;28;20103;-72
2023/09/23 03:06:43;;;;;;;9.07;5.25;;;;;;;;;;5017186;28;20040;-72
2023/09/23 03:09:12;;;;;;;7.97;5.20;;;;;;;;;;5035117;28;20025;-72
2023/09/23 03:11:47;;;;;;;6.63;3.50;;;;;;;;;;5032089;28;20056;-72
2023/09/23 03:14:17;;;;;;;4.95;2.80;;;;;;;;;;5042693;28;20456;-72
2023/09/23 03:16:48;;;;;;;5.63;2.90;;;;;;;;;;5033065;28;20053;-72
2023/09/23 03:19:15;;;;;;;6.70;2.50;;;;;;;;;;5035613;28;20022;-72
2023/09/23 03:21:45;;;;;;;5.95;2.45;;;;;;;;;;5015205;28;20075;-72
2023/09/23 03:24:11;;;;;;;4.35;2.55;;;;;;;;;;5038788;28;20061;-73
2023/09/23 03:26:36;;;;;;;3.97;2.83;;;;;;;;;;5049728;28;20032;-72
2023/09/23 03:29:06;;;;;;;6.57;2.90;;;;;;;;;;5052196;28;20052;-72
2023/09/23 03:31:31;;;;;;;10.00;2.72;;;;;;;;;;5035507;28;20515;-72
2023/09/23 03:33:56;;;;;;;4.55;2.50;;;;;;;;;;5052476;28;20033;-72
2023/09/23 03:36:24;;;;;;;7.13;2.53;;;;;;;;;;5052229;28;20025;-72
2023/09/23 03:38:51;;;;;;;5.25;2.50;;;;;;;;;;5052648;28;20025;-72
2023/09/23 03:41:16;;;;;;;3.00;2.55;;;;;;;;;;5050465;28;20494;-72
2023/09/23 03:43:42;;;;;;;6.80;3.25;;;;;;;;;;5051201;28;20063;-72
2023/09/23 03:46:17;;;;;;;5.40;2.70;;;;;;;;;;5052184;28;20028;-71
2023/09/23 03:48:43;;;;;;;8.40;3.25;;;;;;;;;;5055719;28;20483;-72
2023/09/23 03:51:09;;;;;;;7.78;3.67;;;;;;;;;;5038463;28;20028;-71
2023/09/23 03:53:35;;;;;;;4.15;3.03;;;;;;;;;;5056123;28;20024;-72
2023/09/23 03:56:01;;;;;;;7.35;3.78;;;;;;;;;;5055471;28;20032;-72
2023/09/23 03:58:27;;;;;;;8.30;3.22;;;;;;;;;;5038212;28;20021;-72
2023/09/23 04:00:54;;;;;;;6.82;3.35;;;;;;;;;;5055197;28;20024;-71
2023/09/23 04:03:20;;;;;;;11.18;3.15;;;;;;;;;;5054818;28;20380;-72
2023/09/23 04:05:57;;;;;;;2.72;2.10;;;;;;;;;;5054667;28;20036;-72
2023/09/23 04:08:23;;;;;;;6.45;3.17;;;;;;;;;;5054854;28;20047;-71
2023/09/23 04:10:49;;;;;;;2.88;2.20;;;;;;;;;;5054328;28;20542;-72
2023/09/23 04:13:14;;;;;;;4.55;2.50;;;;;;;;;;5055561;28;20109;-71
2023/09/23 04:15:40;;;;;;;4.63;2.30;;;;;;;;;;5055636;28;20028;-72
2023/09/23 04:18:05;;;;;;;4.38;2.42;;;;;;;;;;5054498;28;20025;-72
2023/09/23 04:20:32;;;;;;;4.25;2.25;;;;;;;;;;5055541;28;20147;-72
2023/09/23 04:22:57;;;;;;;4.43;2.17;;;;;;;;;;5055953;28;20025;-71
2023/09/23 04:25:22;;;;;;;5.63;2.70;;;;;;;;;;5054940;28;20032;-72
2023/09/23 04:27:49;;;;;;;5.45;2.25;;;;;;;;;;5037666;28;20029;-72
2023/09/23 04:30:15;;;;;;;4.80;2.85;;;;;;;;;;5037530;28;20021;-71
2023/09/23 04:32:41;;;;;;;3.63;2.85;;;;;;;;;;5054175;28;20028;-72
2023/09/23 04:35:07;;;;;;;4.22;2.80;;;;;;;;;;5053655;28;20025;-72
2023/09/23 04:37:37;;;;;;;9.00;3.80;;;;;;;;;;5055283;28;20475;-71
2023/09/23 04:40:10;;;;;;;6.90;4.80;;;;;;;;;;5055605;28;20025;-71
2023/09/23 04:42:42;;;;;;;5.57;3.58;;;;;;;;;;5055272;28;20024;-71
2023/09/23 04:45:11;;;;;;;9.63;4.63;;;;;;;;;;5036610;28;20095;-72
2023/09/23 04:47:37;;;;;;;8.55;5.35;;;;;;;;;;5037268;28;20050;-72
2023/09/23 04:50:04;;;;;;;7.85;5.68;;;;;;;;;;5053973;28;20024;-71
2023/09/23 04:52:30;;;;;;;10.00;5.32;;;;;;;;;;5036839;28;20599;-72
2023/09/23 04:54:56;;;;;;;9.70;5.13;;;;;;;;;;5054982;28;20115;-72
2023/09/23 04:57:21;;;;;;;8.43;4.95;;;;;;;;;;5054734;28;20105;-71
2023/09/23 04:59:47;;;;;;;9.23;3.92;;;;;;;;;;5054682;28;20390;-72
2023/09/23 05:02:13;;;;;;;7.63;4.53;;;;;;;;;;5054358;28;20028;-72
2023/09/23 05:04:39;;;;;;;7.75;4.45;;;;;;;;;;5036859;28;20017;-72
2023/09/23 05:07:04;;;;;;;6.20;4.20;;;;;;;;;;5054789;28;20031;-71
2023/09/23 05:09:30;;;;;;;5.35;3.20;;;;;;;;;;5054270;28;20396;-72
2023/09/23 05:11:56;;;;;;;9.63;4.15;;;;;;;;;;5054600;28;20631;-71
2023/09/23 05:14:21;;;;;;;5.45;4.20;;;;;;;;;;5054742;28;20029;-72
2023/09/23 05:16:49;;;;;;;5.35;4.10;;;;;;;;;;5054724;28;20025;-72
2023/09/23 05:19:14;;;;;;;5.65;3.90;;;;;;;;;;5055700;28;20379;-72
2023/09/23 05:21:39;;;;;;;5.68;4.13;;;;;;;;;;5053014;28;20013;-72
2023/09/23 05:24:09;;;;;;;5.82;3.95;;;;;;;;;;5054689;28;20025;-73
2023/09/23 05:26:34;;;;;;;5.88;3.47;;;;;;;;;;5053958;28;20487;-72
2023/09/23 05:29:00;;;;;;;4.13;3.20;;;;;;;;;;5054777;28;20031;-72
2023/09/23 05:31:25;;;;;;;5.07;2.90;;;;;;;;;;5054155;28;20037;-72
2023/09/23 05:33:50;;;;;;;6.45;3.45;;;;;;;;;;5035871;28;20063;-72
2023/09/23 05:36:17;;;;;;;4.40;2.95;;;;;;;;;;5054273;28;20032;-71
2023/09/23 05:38:42;;;;;;;3.95;2.88;;;;;;;;;;5053083;28;20096;-72
2023/09/23 05:41:08;;;;;;;4.68;3.28;;;;;;;;;;5054181;28;20068;-72
2023/09/23 05:43:33;;;;;;;7.03;3.42;;;;;;;;;;5053737;28;20017;-71
2023/09/23 05:46:04;;;;;;;5.47;3.00;;;;;;;;;;5053203;28;20028;-71
2023/09/23 05:48:29;;;;;;;5.65;3.17;;;;;;;;;;5036073;28;20025;-71
2023/09/23 05:51:05;;;;;;;4.03;3.15;;;;;;;;;;5053865;28;20029;-71
2023/09/23 05:53:32;;;;;;;8.82;3.72;;;;;;;;;;5053897;28;20485;-71
2023/09/23 05:55:58;;;;;;;4.57;3.45;;;;;;;;;;5053108;28;20108;-71
2023/09/23 05:58:23;;;;;;;5.50;3.30;;;;;;;;;;5053737;28;20056;-71
2023/09/23 06:00:48;;;;;;;5.93;3.80;;;;;;;;;;5019446;28;20021;-70
2023/09/23 06:03:16;;;;;;;6.20;4.28;;;;;;;;;;5053133;28;20021;-71
2023/09/23 06:05:41;;;;;;;6.93;3.88;;;;;;;;;;5053473;28;20024;-71
2023/09/23 06:08:07;;;;;;;6.03;3.72;;;;;;;;;;5053440;28;20441;-71
2023/09/23 06:10:33;;;;;;;7.85;4.78;;;;;;;;;;5052386;28;20021;-71
2023/09/23 06:12:58;;;;;;;9.48;5.30;;;;;;;;;;5053620;28;20041;-71
2023/09/23 06:15:23;;;;;;;8.98;5.18;;;;;;;;;;5035394;28;20043;-71
2023/09/23 06:17:49;;;;;;;8.93;5.53;;;;;;;;;;5053715;28;20454;-70
2023/09/23 06:20:14;;;;;;;11.35;6.30;;;;;;;;;;5052025;28;20047;-71
2023/09/23 06:22:40;;;;;;;9.55;5.93;;;;;;;;;;5053315;28;20031;-71
2023/09/23 06:25:05;;;;;;;10.48;5.50;;;;;;;;;;5053446;28;20028;-71
2023/09/23 06:27:31;;;;;;;11.48;5.78;;;;;;;;;;5053628;28;20017;-70
2023/09/23 06:29:56;;;;;;;8.82;5.75;;;;;;;;;;5053926;28;20448;-70
2023/09/23 06:32:21;;;;;;;9.70;5.80;;;;;;;;;;5052806;28;20036;-71
2023/09/23 06:34:47;;;;;;;8.40;5.10;;;;;;;;;;5053828;28;20052;-71
2023/09/23 06:37:12;;;;;;;9.45;5.25;;;;;;;;;;5054839;28;20067;-70
2023/09/23 06:39:37;;;;;;;7.13;5.05;;;;;;;;;;5053990;28;20025;-70
2023/09/23 06:42:03;;;;;;;9.38;4.70;;;;;;;;;;5050823;28;20013;-72
2023/09/23 06:44:28;;;;;;;8.15;4.85;;;;;;;;;;5038997;28;20112;-71
2023/09/23 06:46:53;;;;;;;5.75;4.40;;;;;;;;;;5061234;28;20032;-71
2023/09/23 06:49:19;;;;;;;7.35;3.72;;;;;;;;;;5069481;28;20017;-72
2023/09/23 06:51:44;;;;;;;5.65;3.20;;;;;;;;;;5072448;28;20024;-71
2023/09/23 06:54:09;;;;;;;3.95;3.00;;;;;;;;;;5073087;28;20553;-70
2023/09/23 06:56:36;;;;;;;5.18;2.50;;;;;;;;;;5072844;28;20028;-71
2023/09/23 06:59:02;;;;;;;2.80;2.28;;;;;;;;;;5072986;28;20094;-70
2023/09/23 07:01:28;;;;;;;3.25;2.40;;;;;;;;;;5072947;28;20029;-70
2023/09/23 07:03:55;;;;;;;2.70;1.63;;;;;;;;;;5055492;28;20381;-71
2023/09/23 07:06:20;;;;;;;2.80;2.03;;;;;;;;;;5072518;28;20505;-71
2023/09/23 07:08:46;;;;;;;3.35;2.38;;;;;;;;;;5072992;28;20029;-71
2023/09/23 07:11:12;;;;;;;3.38;1.85;;;;;;;;;;5055224;28;20032;-70
2023/09/23 07:13:37;;;;;;;4.32;1.65;;;;;;;;;;5054967;28;20025;-71
2023/09/23 07:16:03;;;;;;;2.72;2.17;;;;;;;;;;5073206;28;20020;-71
2023/09/23 07:18:28;;;;;;;2.08;1.70;;;;;;;;;;5072675;28;20103;-71
2023/09/23 07:20:57;;;;;;;2.75;1.75;;;;;;;;;;5055541;28;20486;-70
2023/09/23 07:23:23;;;;;;;4.88;2.88;;;;;;;;;;5058955;28;20020;-70
2023/09/23 07:25:48;;;;;;;5.28;3.30;;;;;;;;;;5058714;28;20033;-71
2023/09/23 07:28:13;;;;;;;2.20;1.85;;;;;;;;;;5076674;28;20100;-70
2023/09/23 07:30:39;;;;;;;3.28;2.65;;;;;;;;;;5058928;28;20032;-70
2023/09/23 07:33:04;;;;;;;3.58;2.30;;;;;;;;;;5076136;28;20126;-71
2023/09/23 07:35:31;;;;;;;2.90;2.05;;;;;;;;;;5076398;28;20030;-71
2023/09/23 07:37:57;;;;;;;3.72;2.53;;;;;;;;;;5058682;28;20047;-70
2023/09/23 07:40:22;;;;;;;5.03;2.65;;;;;;;;;;5076366;28;20482;-71
2023/09/23 07:42:48;;;;;;;3.50;2.15;;;;;;;;;;5076264;28;20016;-70
2023/09/23 07:45:13;;;;;;;3.65;2.17;;;;;;;;;;5057802;28;20033;-71
2023/09/23 07:47:38;;;;;;;2.78;1.92;;;;;;;;;;5077296;22;20049;-69
2023/09/23 07:50:04;;;;;;;5.22;1.95;;;;;;;;;;5055480;28;20032;-68
2023/09/23 07:52:30;;;;;;;1.98;1.77;;;;;;;;;;5055510;28;20064;-68
2023/09/23 07:54:55;;;;;;;2.50;2.28;;;;;;;;;;5055610;28;20093;-68
2023/09/23 07:57:20;;;;;;;2.55;1.50;;;;;;;;;;5054707;28;20471;-68
2023/09/23 07:59:46;;;;;;;2.20;1.40;;;;;;;;;;5055530;28;20028;-68
2023/09/23 08:02:11;;;;;;;2.65;1.55;;;;;;;;;;5055239;28;20025;-68
2023/09/23 08:04:36;;;;;;;3.10;1.45;;;;;;;;;;5054705;28;20150;-68
2023/09/23 08:07:01;;;;;;;2.85;1.67;;;;;;;;;;5054937;28;20025;-69
2023/09/23 08:09:27;;;;;;;1.90;1.42;;;;;;;;;;5055047;28;20031;-68
2023/09/23 08:11:52;;;;;;;2.20;1.58;;;;;;;;;;5055663;28;20032;-68
2023/09/23 08:14:17;;;;;;;1.77;1.55;;;;;;;;;;5055296;28;20028;-68
2023/09/23 08:16:43;;;;;;;1.90;1.52;;;;;;;;;;5054435;28;20025;-68
2023/09/23 08:19:08;;;;;;;2.92;1.60;;;;;;;;;;5054899;28;20020;-68
2023/09/23 08:21:33;;;;;;;1.50;1.40;;;;;;;;;;5054880;28;20422;-68
2023/09/23 08:23:59;;;;;;;2.42;1.80;;;;;;;;;;5037627;28;20029;-68
2023/09/23 08:26:24;;;;;;;2.65;1.42;;;;;;;;;;5054161;28;20024;-68
2023/09/23 08:28:49;;;;;;;1.88;1.65;;;;;;;;;;5054963;28;20024;-68
2023/09/23 08:31:16;;;;;;;1.98;1.58;;;;;;;;;;5054671;28;20024;-68
2023/09/23 08:33:41;;;;;;;1.42;1.33;;;;;;;;;;5053780;28;20463;-68
2023/09/23 08:36:07;;;;;;;2.30;1.42;;;;;;;;;;5054082;28;20029;-68
2023/09/23 08:38:32;;;;;;;1.30;1.20;;;;;;;;;;5055132;28;20025;-70
2023/09/23 08:40:57;;;;;;;1.73;1.33;;;;;;;;;;5054554;28;20079;-70
2023/09/23 08:43:36;;;;;;;2.70;1.55;;;;;;;;;;5036926;28;20017;-70
2023/09/23 08:46:03;;;;;;;1.70;1.30;;;;;;;;;;5037754;28;20031;-70
2023/09/23 08:48:31;;;;;;;5.55;1.63;;;;;;;;;;5036109;28;20064;-70
2023/09/23 08:50:56;;;;;;;1.50;0.95;;;;;;;;;;5036863;28;20395;-70
2023/09/23 08:53:22;;;;;;;2.92;1.45;;;;;;;;;;5054542;28;20074;-70
2023/09/23 08:55:48;;;;;;;3.50;1.10;;;;;;;;;;5036724;28;20383;-70
2023/09/23 08:58:13;;;;;;;9.30;2.30;;;;;;;;;;5053631;28;20078;-70
2023/09/23 09:00:45;;;;;;;4.50;1.80;;;;;;;;;;5054877;28;20103;-70
2023/09/23 09:03:11;;;;;;;2.55;1.70;;;;;;;;;;5054378;28;20017;-69
2023/09/23 09:05:39;;;;;;;3.28;1.50;;;;;;;;;;5054093;28;20028;-69
2023/09/23 09:08:08;;;;;;;15.63;3.92;;;;;;;;;;5053972;28;20055;-69
2023/09/23 09:10:33;;;;;;;2.65;1.33;;;;;;;;;;5053387;28;20031;-70
2023/09/23 09:13:03;;;;;;;1.52;1.38;;;;;;;;;;5053861;28;20017;-69
2023/09/23 09:15:32;;;;;;;2.22;1.20;;;;;;;;;;5053885;28;20398;-69
2023/09/23 09:17:58;;;;;;;4.18;1.30;;;;;;;;;;5036019;28;20533;-69
2023/09/23 09:20:23;;;;;;;1.77;1.52;;;;;;;;;;5054054;28;20056;-69
2023/09/23 09:22:50;;;;;;;1.80;1.50;;;;;;;;;;5053742;28;20055;-69
2023/09/23 09:25:19;;;;;;;1.38;1.20;;;;;;;;;;5053165;28;20035;-69
2023/09/23 09:27:45;;;;;;;1.60;1.50;;;;;;;;;;5053727;28;20037;-69
2023/09/23 09:30:11;;;;;;;4.55;1.55;;;;;;;;;;5053577;28;20023;-69
2023/09/23 09:32:36;;;;;;;5.28;1.33;;;;;;;;;;5053815;28;20032;-69
2023/09/23 09:35:03;;;;;;;2.08;1.35;;;;;;;;;;5035589;28;20025;-69
2023/09/23 09:37:29;;;;;;;2.65;1.50;;;;;;;;;;5035621;28;20509;-69
2023/09/23 09:39:58;;;;;;;1.88;1.75;;;;;;;;;;5035034;28;20039;-69
2023/09/23 09:42:27;;;;;;;4.25;1.52;;;;;;;;;;5053610;28;20120;-69
2023/09/23 09:44:55;;;;;;;3.17;1.42;;;;;;;;;;5035748;28;20100;-69
2023/09/23 09:47:21;;;;;;;2.13;1.65;;;;;;;;;;5035345;28;20375;-69
2023/09/23 09:49:47;;;;;;;2.25;1.63;;;;;;;;;;5052911;28;20244;-69
2023/09/23 09:52:13;;;;;;;2.88;1.35;;;;;;;;;;5035534;28;20033;-69
2023/09/23 09:54:39;;;;;;;3.15;1.95;;;;;;;;;;5053066;28;20016;-69
2023/09/23 09:57:07;;;;;;;2.92;1.42;;;;;;;;;;5052571;28;20024;-69
2023/09/23 09:59:33;;;;;;;5.45;1.60;;;;;;;;;;5040083;28;20104;-69
2023/09/23 10:01:59;;;;;;;3.05;1.48;;;;;;;;;;5042448;28;20025;-69
2023/09/23 10:04:30;;;;;;;2.50;1.70;;;;;;;;;;5029467;28;20048;-69
2023/09/23 10:06:56;;;;;;;1.38;1.27;;;;;;;;;;5023064;28;20021;-69
2023/09/23 10:09:29;;;;;;;2.08;1.10;;;;;;;;;;5033184;28;20391;-69
2023/09/23 10:11:56;;;;;;;2.78;1.63;;;;;;;;;;5042785;28;20108;-69
2023/09/23 10:14:22;;;;;;;3.17;1.42;;;;;;;;;;5042769;28;20029;-69
2023/09/23 10:16:52;;;;;;;2.95;1.52;;;;;;;;;;5039819;28;20055;-69
2023/09/23 10:19:31;;;;;;;3.72;1.52;;;;;;;;;;5034736;28;20040;-69
2023/09/23 10:22:11;;;;;;;4.10;1.70;;;;;;;;;;5052513;28;20036;-69
2023/09/23 10:24:36;;;;;;;5.13;2.97;;;;;;;;;;5015317;28;20026;-69
2023/09/23 10:27:06;;;;;;;4.32;1.38;;;;;;;;;;5033075;28;20032;-70
2023/09/23 10:29:49;;;;;;;2.17;1.67;;;;;;;;;;5038871;28;20079;-70
2023/09/23 10:32:16;;;;;;;6.05;2.08;;;;;;;;;;5032437;28;20029;-69
2023/09/23 10:34:48;;;;;;;3.17;1.42;;;;;;;;;;5032636;28;20395;-69
2023/09/23 10:37:32;;;;;;;4.57;1.50;;;;;;;;;;5032072;28;20064;-69
2023/09/23 10:40:12;;;;;;;3.50;1.77;;;;;;;;;;5032619;28;20021;-69
2023/09/23 10:42:38;;;;;;;4.18;1.50;;;;;;;;;;5022439;28;20089;-69
2023/09/23 10:45:05;;;;;;;2.28;1.30;;;;;;;;;;5044406;28;20075;-69
2023/09/23 10:47:30;;;;;;;2.88;2.20;;;;;;;;;;5052107;28;20079;-69
2023/09/23 10:49:56;;;;;;;2.28;1.20;;;;;;;;;;5051939;28;20410;-70
2023/09/23 10:52:21;;;;;;;6.13;1.50;;;;;;;;;;5052569;28;20025;-69
2023/09/23 10:54:49;;;;;;;7.15;1.98;;;;;;;;;;5052426;28;20099;-69
2023/09/23 10:57:15;;;;;;;4.47;1.52;;;;;;;;;;5054950;28;20025;-69
2023/09/23 10:59:43;;;;;;;5.30;2.05;;;;;;;;;;5056091;28;20112;-69
2023/09/23 11:02:10;;;;;;;3.03;2.00;;;;;;;;;;5056336;28;20063;-69
2023/09/23 11:04:35;;;;;;;7.95;1.92;;;;;;;;;;5056847;28;20021;-69
2023/09/23 11:07:02;;;;;;;6.68;2.42;;;;;;;;;;5056077;28;20479;-69
2023/09/23 11:09:27;;;;;;;4.93;2.00;;;;;;;;;;5038626;28;20501;-69
2023/09/23 11:11:54;;;;;;;5.88;1.98;;;;;;;;;;5037989;28;20083;-71
2023/09/23 11:14:21;;;;;;;5.38;2.03;;;;;;;;;;5056366;28;20021;-71
2023/09/23 11:16:46;;;;;;;4.25;2.55;;;;;;;;;;5055847;28;20041;-71
2023/09/23 11:19:11;;;;;;;6.10;2.03;;;;;;;;;;5038340;28;20529;-71
2023/09/23 11:21:44;;;;;;;4.65;1.95;;;;;;;;;;5055354;28;20090;-71
2023/09/23 11:24:09;;;;;;;2.97;1.75;;;;;;;;;;5056192;28;20025;-71
2023/09/23 11:26:39;;;;;;;6.07;2.10;;;;;;;;;;5056140;28;20029;-71
2023/09/23 11:29:04;;;;;;;9.88;1.73;;;;;;;;;;5055431;28;20028;-71
2023/09/23 11:31:31;;;;;;;4.63;1.80;;;;;;;;;;5055865;28;20021;-69
2023/09/23 11:33:56;;;;;;;4.68;2.25;;;;;;;;;;5055572;28;20036;-69
2023/09/23 11:36:21;;;;;;;2.28;1.70;;;;;;;;;;5055605;28;20029;-71
2023/09/23 11:38:47;;;;;;;3.08;2.00;;;;;;;;;;5055467;28;20029;-71
2023/09/23 11:41:12;;;;;;;4.45;2.13;;;;;;;;;;5045848;28;20136;-69
2023/09/23 11:43:37;;;;;;;4.00;1.80;;;;;;;;;;5034824;28;20020;-69
2023/09/23 11:46:03;;;;;;;2.42;1.50;;;;;;;;;;5037180;28;20494;-69
2023/09/23 11:48:28;;;;;;;3.88;1.98;;;;;;;;;;5055427;28;20138;-69
2023/09/23 11:50:53;;;;;;;4.13;2.42;;;;;;;;;;5055175;28;20510;-69
2023/09/23 11:53:19;;;;;;;5.97;1.83;;;;;;;;;;5033057;28;20029;-69
2023/09/23 11:55:45;;;;;;;8.00;3.40;;;;;;;;;;5016893;28;20037;-70
2023/09/23 11:58:10;;;;;;;4.53;2.10;;;;;;;;;;5041108;28;20028;-71
2023/09/23 12:00:36;;;;;;;2.90;1.63;;;;;;;;;;5042216;28;20029;-70
2023/09/23 12:03:02;;;;;;;2.67;1.70;;;;;;;;;;5034826;28;20014;-70
2023/09/23 12:05:30;;;;;;;3.50;1.52;;;;;;;;;;5038803;28;20021;-70
2023/09/23 12:07:58;;;;;;;10.00;1.63;;;;;;;;;;5053407;28;20338;-70
2023/09/23 12:10:24;;;;;;;2.05;1.55;;;;;;;;;;5054567;28;20021;-69
2023/09/23 12:12:50;;;;;;;8.98;1.73;;;;;;;;;;5017502;28;20026;-69
2023/09/23 12:15:15;;;;;;;7.07;1.85;;;;;;;;;;5016941;28;20037;-70
2023/09/23 12:17:41;;;;;;;8.25;2.08;;;;;;;;;;5047985;28;20027;-70
2023/09/23 12:20:14;;;;;;;2.13;1.48;;;;;;;;;;5054218;28;20540;-70
2023/09/23 12:22:39;;;;;;;5.53;1.60;;;;;;;;;;5054619;28;20099;-69
2023/09/23 12:25:06;;;;;;;6.55;1.80;;;;;;;;;;5046991;28;20117;-69
2023/09/23 12:27:31;;;;;;;3.67;1.67;;;;;;;;;;5033995;28;20025;-70
2023/09/23 12:29:56;;;;;;;4.82;1.83;;;;;;;;;;5047853;28;20040;-69
2023/09/23 12:32:22;;;;;;;3.13;1.60;;;;;;;;;;5054258;28;20021;-69
2023/09/23 12:34:49;;;;;;;4.47;1.55;;;;;;;;;;5036451;28;20025;-69
2023/09/23 12:37:14;;;;;;;2.40;1.40;;;;;;;;;;5054412;28;20021;-69
2023/09/23 12:39:40;;;;;;;2.70;1.58;;;;;;;;;;5053767;28;20470;-69
2023/09/23 12:42:05;;;;;;;4.15;1.95;;;;;;;;;;5054498;28;20025;-69
2023/09/23 12:44:30;;;;;;;6.47;1.65;;;;;;;;;;5036477;28;20021;-70
2023/09/23 12:46:56;;;;;;;7.30;1.95;;;;;;;;;;5054336;28;20470;-69
2023/09/23 12:49:21;;;;;;;2.55;1.70;;;;;;;;;;5054106;28;20117;-69
2023/09/23 12:51:47;;;;;;;1.88;1.63;;;;;;;;;;5053602;28;20083;-69
2023/09/23 12:54:12;;;;;;;3.85;1.38;;;;;;;;;;5042190;28;20037;-69
2023/09/23 12:56:38;;;;;;;3.05;1.55;;;;;;;;;;5033838;28;20024;-69
2023/09/23 12:59:06;;;;;;;2.88;1.92;;;;;;;;;;5047476;28;20024;-69
2023/09/23 13:01:35;;;;;;;3.00;1.98;;;;;;;;;;5036458;28;20025;-69
2023/09/23 13:04:01;;;;;;;2.50;1.50;;;;;;;;;;5051448;28;20028;-69
2023/09/23 13:06:26;;;;;;;3.65;1.65;;;;;;;;;;5036634;28;20022;-69
2023/09/23 13:08:52;;;;;;;3.30;1.90;;;;;;;;;;5033830;28;20438;-69
2023/09/23 13:11:19;;;;;;;2.97;1.23;;;;;;;;;;5046990;28;20028;-69
2023/09/23 13:13:44;;;;;;;3.03;1.55;;;;;;;;;;5053451;28;20104;-69
2023/09/23 13:16:10;;;;;;;2.40;1.65;;;;;;;;;;5053506;28;20166;-69
2023/09/23 13:18:36;;;;;;;6.63;2.00;;;;;;;;;;5053139;28;20127;-69
2023/09/23 13:21:02;;;;;;;2.35;1.30;;;;;;;;;;5053370;28;20040;-69
2023/09/23 13:23:27;;;;;;;2.08;1.52;;;;;;;;;;5052924;28;20052;-68
2023/09/23 13:25:52;;;;;;;2.42;1.58;;;;;;;;;;5053402;28;20104;-69
2023/09/23 13:28:18;;;;;;;3.72;1.67;;;;;;;;;;5053343;28;20016;-69
2023/09/23 13:30:43;;;;;;;5.75;1.67;;;;;;;;;;5034520;28;20029;-69
2023/09/23 13:33:08;;;;;;;2.65;0.90;;;;;;;;;;5015427;28;20348;-69
2023/09/23 13:35:37;;;;;;;3.90;1.30;;;;;;;;;;5051785;28;20451;-69
2023/09/23 13:38:03;;;;;;;3.05;1.40;;;;;;;;;;5035366;28;20025;-69
2023/09/23 13:40:28;;;;;;;2.85;1.70;;;;;;;;;;5033179;28;20095;-69
2023/09/23 13:42:54;;;;;;;2.13;1.40;;;;;;;;;;5053417;28;20024;-69
2023/09/23 13:45:20;;;;;;;2.35;1.13;;;;;;;;;;5053090;28;20398;-69
2023/09/23 13:47:46;;;;;;;2.42;1.42;;;;;;;;;;5106892;23;20517;-68
2023/09/23 13:50:11;;;;;;;3.00;1.50;;;;;;;;;;5053532;28;20020;-68
2023/09/23 13:52:36;;;;;;;5.88;1.80;;;;;;;;;;5052552;28;20098;-69
2023/09/23 13:55:02;;;;;;;1.70;1.45;;;;;;;;;;5053417;28;20032;-68
2023/09/23 13:57:28;;;;;;;5.38;2.00;;;;;;;;;;5043321;28;20029;-68
2023/09/23 13:59:53;;;;;;;6.78;1.92;;;;;;;;;;5031542;28;20093;-69
2023/09/23 14:02:18;;;;;;;2.28;1.30;;;;;;;;;;5052861;28;20013;-69
2023/09/23 14:04:44;;;;;;;2.10;1.90;;;;;;;;;;5053107;28;20449;-68
2023/09/23 14:07:10;;;;;;;2.72;1.90;;;;;;;;;;5035414;28;20033;-69
2023/09/23 14:09:35;;;;;;;3.28;1.52;;;;;;;;;;5024926;28;20029;-69
2023/09/23 14:12:01;;;;;;;5.45;2.08;;;;;;;;;;5032812;28;20025;-69
2023/09/23 14:14:26;;;;;;;4.97;1.75;;;;;;;;;;5041882;28;20018;-69
2023/09/23 14:16:51;;;;;;;9.75;2.17;;;;;;;;;;5032813;28;20044;-70
2023/09/23 14:19:17;;;;;;;2.80;1.60;;;;;;;;;;5022155;28;20570;-70
2023/09/23 14:21:42;;;;;;;1.80;1.50;;;;;;;;;;5053107;28;20112;-71
2023/09/23 14:24:07;;;;;;;7.90;2.13;;;;;;;;;;5031104;28;20042;-71
2023/09/23 14:26:33;;;;;;;7.20;1.90;;;;;;;;;;5033228;28;20021;-71
2023/09/23 14:28:58;;;;;;;2.05;1.60;;;;;;;;;;5035313;28;20025;-70
2023/09/23 14:31:23;;;;;;;2.55;1.45;;;;;;;;;;5052264;28;20430;-70
2023/09/23 14:33:49;;;;;;;2.22;1.70;;;;;;;;;;5034916;28;20036;-69
2023/09/23 14:36:14;;;;;;;2.08;1.60;;;;;;;;;;5026341;28;20438;-69